x

N01 - Northeast Channel (44024) Wave Buoy

2:04am - Tue 3rd Mar 2015 All times are AST. -4 hours from GMT.

  • Sig Wave height 24.9ft
  • Peak Period 11s
  • Wind
    34mph, 45mph gusts
  • Sea Temp 37°f
  • Air Temp 29°f
  • Sea Pressure 1014.2mb
  • N01 - Northeast Channel
  • N01 - Northeast Channel

More Historic Weather Station data

Upgrade to MSW Pro to gain access to the past 30 days of data for over 8000 Wavebouys and Weather Stations around the globe.

Join Pro

Comparision Forecast

View Surf forecast
   
Tue 03/03 2:04am 25ft 11s 34 45 mph 1014.2mb 37f 29f
12:04am 25ft 11s 34 45 mph 1014.2mb 37f 29f
Mon 03/02 11:04pm 19.5ft 11s 31 40 mph 1013.6mb 37f 30f
10:04pm 16.5ft 11s 38 45 mph 1012.8mb 37f 32f
9:04pm 19ft 11s 36 45 mph 1011.5mb 37f 33f
8:04pm 15.5ft 8s 34 45 mph 1010.7mb 37f 33f
7:04pm 11.5ft 8s 36 45 mph 1009.3mb 37f 33f
6:04pm 10ft 8s 29 36 mph 1008.1mb 37f 32f
4:04pm 10ft 6s 31 38 mph 1006.7mb 38f 31f
3:04pm 7ft 5s 29 36 mph 1006mb 37f 33f
2:04pm 9ft 5s 27 34 mph 1005.5mb 37f 34f
1:04pm 8ft 8s 27 31 mph 1005.6mb 37f 35f
12:04pm 10ft 11s 20 25 mph 1006.8mb 36f 36f
11:04am 9ft 8s 18 22 mph 1007.3mb 36f 37f
10:04am 7ft 8s 18 22 mph 1007.8mb 36f 37f
9:04am 6ft 8s 20 25 mph 1008.7mb 37f 37f
8:04am 2.5ft 6s 9 11 mph 1009.6mb 37f 37f
7:04am 2.5ft 5s 2
mph
1010mb 37f 36f
6:04am 2.5ft 6s 2 4 mph 1011.2mb 37f 37f
5:04am 3ft 5s 9 11 mph 1012.3mb 38f 37f
4:04am 3ft 6s 4 7 mph 1014mb 37f 37f
3:04am 3ft 5s 11 13 mph 1016.7mb 38f 37f
2:04am 3.5ft 5s 13 18 mph 1019.4mb 38f 36f
12:04am 3.5ft 5s 18 20 mph 1023.5mb 37f 33f
Sun 03/01 11:04pm 3.5ft 4s 18 20 mph 1025.8mb 37f 33f
10:04pm 3ft 4s 16 20 mph 1027.1mb 37f 34f
9:04pm 3.5ft 4s 18 20 mph 1028.8mb 37f 33f
8:04pm 3ft 4s 18 25 mph 1030mb 36f 34f
7:04pm 2.5ft 5s 16 20 mph 1030.7mb 36f 34f
6:04pm 2.5ft 5s 13 16 mph 1031.3mb 36f 33f
5:04pm 2.5ft 5s 11 13 mph 1031.4mb 37f 33f
4:04pm 2.5ft 8s 11 13 mph 1032.7mb 38f 33f
3:04pm 2.5ft 5s 13 16 mph 1034.1mb 37f 33f
2:04pm 3ft 11s 7 9 mph 1034.5mb 37f 33f
1:04pm 3.5ft 11s 7 9 mph 1035.6mb 37f 33f
12:04pm 3ft 8s 7 9 mph 1036.5mb 36f 33f
11:04am 2.5ft 5s 9 13 mph 1037.3mb 36f 33f
10:04am 3ft 11s 4
mph
1037.9mb 36f 33f
9:04am 2.5ft 5s 2 4 mph 1037.6mb 36f 34f
8:04am 2.5ft 8s 7 9 mph 1037.9mb 36f 31f
7:04am 2.5ft 11s 7 9 mph 1037.9mb 35f 31f
6:04am 3.5ft 11s 9 11 mph 1038mb 35f 31f
5:04am 2ft 5s 11 16 mph 1037.8mb 37f 32f
4:04am 3.5ft 11s 11 16 mph 1037.5mb 40f 31f
3:04am 2.5ft 5s 11 16 mph 1038mb 40f 31f
2:04am 2.5ft 4s 13 18 mph 1038.2mb 39f 31f
1:04am 3.5ft 8s 13 16 mph 1038.1mb 39f 31f
12:04am 2.5ft 5s 9 13 mph 1038.3mb 38f 29f
Sat 02/28 11:04pm 3.5ft 11s 13 16 mph 1038.8mb 38f 29f
10:04pm 4.5ft 11s 7 9 mph 1038.9mb 37f 29f
9:04pm 4.5ft 11s 9 11 mph 1038.6mb 37f 29f
8:04pm 4.5ft 11s 9 13 mph 1038.6mb 37f 28f
6:04pm 4ft 6s 13 16 mph 1037.7mb 37f 29f
5:04pm 5ft 11s 13 18 mph 1037.3mb 37f 30f
4:04pm 4.5ft 11s 13 18 mph 1037.3mb 40f 30f
3:04pm 5ft 11s 16 20 mph 1037.3mb 41f 29f
2:04pm 5.5ft 11s 11 13 mph 1037.3mb 41f 28f
1:04pm 5.5ft 11s 7 11 mph 1037.7mb 41f 28f
12:04pm 5ft 11s 7 9 mph 1037.9mb 40f 28f
11:04am 5ft 11s 7 11 mph 1037.5mb 39f 28f
10:04am 3.5ft 5s 9 13 mph 1037mb 38f 28f
9:04am 5.5ft 11s 9 13 mph 1036.5mb 38f 28f
8:04am 5ft 11s 13 20 mph 1035.2mb 37f 28f
7:04am 5.5ft 11s 11 13 mph 1034.1mb 36f 28f
6:04am 5.5ft 11s 13 18 mph 1033.2mb 36f 28f
5:04am 5.5ft 11s 16 18 mph 1032.3mb 36f 28f
4:04am 6ft 11s 16 20 mph 1031.4mb 36f 28f
3:04am 7ft 11s 18 22 mph 1031mb 40f 28f
2:04am 7ft 11s 18 22 mph 1030.6mb 42f 28f
1:04am 7.5ft 11s 16 20 mph 1030.1mb 41f 28f
12:04am 7ft 11s 13 18 mph 1029.7mb 41f 27f
Fri 02/27 11:04pm 7ft 11s 11 16 mph 1029.3mb 41f 27f
10:04pm 6.5ft 11s 7 11 mph 1028.9mb 40f 27f
9:04pm 6.5ft 11s 7 11 mph 1028.6mb 40f 27f
8:04pm 6.5ft 11s 7 13 mph 1028.2mb 40f 26f
7:04pm 6ft 11s 7 11 mph 1027.5mb 39f 26f
6:04pm 7ft 11s 9 13 mph 1026.9mb 39f 26f
5:04pm 5.5ft 11s 9 11 mph 1026.1mb 38f 26f
4:04pm 6.5ft 11s 4 11 mph 1025.2mb 38f 26f
3:04pm 7ft 11s 11 13 mph 1024.9mb 38f 25f
2:04pm 7ft 11s 11 16 mph 1024.2mb 39f 24f
1:04pm 8ft 11s 11 16 mph 1024.1mb 40f 25f
12:04pm 8ft 11s 13 16 mph 1024mb 40f 26f
11:04am 10ft 11s 11 16 mph 1023.5mb 41f 26f
10:04am 10ft 11s 9 13 mph 1022.8mb 41f 25f
9:04am 9ft 11s 11 18 mph 1022.7mb 41f 25f
8:04am 9ft 11s 11 16 mph 1021.2mb 40f 25f